Terminal Aerodrome Forecast
Issued by NWS Shreveport, LA

Home | Current Version | Previous Version | Text Only | Print | Product List | Glossary On
Versions: 1 2 3 4 5 6 7 8 9 10 11 12 13 14 15 16
000
FTUS44 KSHV 271100 RRA
TAFLFK
TAF
KLFK 271142Z 2712/2812 12005KT 3/4SM BR VCSH OVC002
      TEMPO 2712/2716 2SM TSRA BR BKN004 OVC012CB
     FM271600 32006KT 5SM -SHRA BR OVC007
     FM271900 34012KT 6SM BR OVC015
     FM280000 35012KT P6SM VCSH BKN007 OVC015
     FM280600 35010KT P6SM OVC015
      TEMPO 2806/2810 4SM -RA BR=

USA.gov is the U.S. government's official web portal to all federal, state and local government web resources and services.